sensor_id;sensor_type;location;lat;lon;timestamp;pressure;altitude;pressure_sealevel;temperature;humidity
57232;BME280;43488;46.934;8.276;2023-06-14T00:02:00;95874.97;;;17.61;52.55
57232;BME280;43488;46.934;8.276;2023-06-14T00:04:27;95882.69;;;17.68;51.48
57232;BME280;43488;46.934;8.276;2023-06-14T00:06:56;95875.50;;;17.68;51.84
57232;BME280;43488;46.934;8.276;2023-06-14T00:09:25;95876.31;;;17.74;51.50
57232;BME280;43488;46.934;8.276;2023-06-14T00:11:52;95885.38;;;17.78;51.42
57232;BME280;43488;46.934;8.276;2023-06-14T00:14:19;95877.63;;;17.81;51.58
57232;BME280;43488;46.934;8.276;2023-06-14T00:16:47;95878.19;;;17.83;51.36
57232;BME280;43488;46.934;8.276;2023-06-14T00:19:14;95878.44;;;17.82;51.89
57232;BME280;43488;46.934;8.276;2023-06-14T00:21:43;95874.19;;;17.71;52.56
57232;BME280;43488;46.934;8.276;2023-06-14T00:24:10;95875.50;;;17.58;52.90
57232;BME280;43488;46.934;8.276;2023-06-14T00:26:38;95876.28;;;17.63;52.98
57232;BME280;43488;46.934;8.276;2023-06-14T00:29:05;95879.50;;;17.60;52.46
57232;BME280;43488;46.934;8.276;2023-06-14T00:31:33;95880.53;;;17.54;52.17
57232;BME280;43488;46.934;8.276;2023-06-14T00:34:00;95880.00;;;17.52;52.31
57232;BME280;43488;46.934;8.276;2023-06-14T00:36:27;95869.63;;;17.51;52.42
57232;BME280;43488;46.934;8.276;2023-06-14T00:38:55;95876.31;;;17.38;52.73
57232;BME280;43488;46.934;8.276;2023-06-14T00:41:23;95882.94;;;17.20;53.89
57232;BME280;43488;46.934;8.276;2023-06-14T00:43:50;95876.25;;;17.02;54.25
57232;BME280;43488;46.934;8.276;2023-06-14T00:46:18;95879.38;;;16.79;55.71
57232;BME280;43488;46.934;8.276;2023-06-14T00:48:47;95882.28;;;16.77;56.23
57232;BME280;43488;46.934;8.276;2023-06-14T00:51:15;95882.84;;;16.85;56.14
57232;BME280;43488;46.934;8.276;2023-06-14T00:53:42;95878.81;;;16.72;57.17
57232;BME280;43488;46.934;8.276;2023-06-14T00:56:14;95880.31;;;16.53;58.31
57232;BME280;43488;46.934;8.276;2023-06-14T00:58:42;95886.06;;;16.34;59.41
57232;BME280;43488;46.934;8.276;2023-06-14T01:01:10;95878.44;;;16.48;59.07
57232;BME280;43488;46.934;8.276;2023-06-14T01:03:38;95880.31;;;16.53;58.69
57232;BME280;43488;46.934;8.276;2023-06-14T01:06:45;95881.38;;;16.52;58.11
57232;BME280;43488;46.934;8.276;2023-06-14T01:12:56;95876.63;;;16.64;58.31
57232;BME280;43488;46.934;8.276;2023-06-14T01:15:27;95875.63;;;16.70;58.25
57232;BME280;43488;46.934;8.276;2023-06-14T01:17:58;95886.00;;;16.76;58.46
57232;BME280;43488;46.934;8.276;2023-06-14T01:20:33;95891.31;;;16.76;58.07
57232;BME280;43488;46.934;8.276;2023-06-14T01:23:03;95889.72;;;16.81;57.48
57232;BME280;43488;46.934;8.276;2023-06-14T01:25:31;95881.50;;;16.77;56.13
57232;BME280;43488;46.934;8.276;2023-06-14T01:28:06;95884.41;;;16.75;55.70
57232;BME280;43488;46.934;8.276;2023-06-14T01:30:40;95883.50;;;16.55;57.85
57232;BME280;43488;46.934;8.276;2023-06-14T01:33:14;95889.28;;;16.41;58.83
57232;BME280;43488;46.934;8.276;2023-06-14T01:35:48;95881.81;;;16.33;59.09
57232;BME280;43488;46.934;8.276;2023-06-14T01:38:17;95885.00;;;16.30;59.66
57232;BME280;43488;46.934;8.276;2023-06-14T01:40:48;95878.56;;;16.21;60.30
57232;BME280;43488;46.934;8.276;2023-06-14T01:43:16;95881.72;;;16.18;60.45
57232;BME280;43488;46.934;8.276;2023-06-14T01:45:47;95889.25;;;16.31;59.97
57232;BME280;43488;46.934;8.276;2023-06-14T01:48:15;95879.69;;;16.35;59.40
57232;BME280;43488;46.934;8.276;2023-06-14T01:50:43;95875.75;;;16.38;58.77
57232;BME280;43488;46.934;8.276;2023-06-14T01:53:11;95877.59;;;16.37;58.45
57232;BME280;43488;46.934;8.276;2023-06-14T01:55:38;95868.56;;;16.38;59.08
57232;BME280;43488;46.934;8.276;2023-06-14T01:58:05;95877.00;;;16.25;60.26
57232;BME280;43488;46.934;8.276;2023-06-14T02:00:33;95880.88;;;16.07;60.85
57232;BME280;43488;46.934;8.276;2023-06-14T02:03:01;95879.06;;;16.18;60.34
57232;BME280;43488;46.934;8.276;2023-06-14T02:05:28;95873.25;;;16.21;60.45
57232;BME280;43488;46.934;8.276;2023-06-14T02:07:55;95876.44;;;16.23;60.04
57232;BME280;43488;46.934;8.276;2023-06-14T02:10:23;95881.75;;;16.23;60.30
57232;BME280;43488;46.934;8.276;2023-06-14T02:12:50;95880.38;;;16.15;60.09
57232;BME280;43488;46.934;8.276;2023-06-14T02:15:19;95883.31;;;16.14;60.46
57232;BME280;43488;46.934;8.276;2023-06-14T02:17:47;95884.84;;;16.05;61.10
57232;BME280;43488;46.934;8.276;2023-06-14T02:20:16;95882.66;;;15.97;61.21
57232;BME280;43488;46.934;8.276;2023-06-14T02:22:45;95888.66;;;15.77;61.89
57232;BME280;43488;46.934;8.276;2023-06-14T02:25:13;95878.91;;;15.55;62.71
57232;BME280;43488;46.934;8.276;2023-06-14T02:27:41;95880.09;;;15.38;63.74
57232;BME280;43488;46.934;8.276;2023-06-14T02:30:08;95879.44;;;15.25;64.10
57232;BME280;43488;46.934;8.276;2023-06-14T02:32:36;95890.13;;;15.35;64.04
57232;BME280;43488;46.934;8.276;2023-06-14T02:35:03;95884.44;;;15.49;63.69
57232;BME280;43488;46.934;8.276;2023-06-14T02:37:31;95889.59;;;15.60;63.39
57232;BME280;43488;46.934;8.276;2023-06-14T02:39:59;95882.41;;;15.61;62.88
57232;BME280;43488;46.934;8.276;2023-06-14T02:42:26;95890.16;;;15.68;62.26
57232;BME280;43488;46.934;8.276;2023-06-14T02:44:54;95887.78;;;15.66;61.45
57232;BME280;43488;46.934;8.276;2023-06-14T02:47:21;95890.44;;;15.71;61.53
57232;BME280;43488;46.934;8.276;2023-06-14T02:49:49;95889.00;;;15.58;61.60
57232;BME280;43488;46.934;8.276;2023-06-14T02:52:17;95887.78;;;15.39;62.88
57232;BME280;43488;46.934;8.276;2023-06-14T02:54:44;95892.13;;;15.18;64.27
57232;BME280;43488;46.934;8.276;2023-06-14T02:57:12;95897.25;;;15.03;65.01
57232;BME280;43488;46.934;8.276;2023-06-14T02:59:39;95891.66;;;14.99;65.29
57232;BME280;43488;46.934;8.276;2023-06-14T03:02:08;95901.34;;;14.89;66.33
57232;BME280;43488;46.934;8.276;2023-06-14T03:04:36;95898.22;;;14.92;65.06
57232;BME280;43488;46.934;8.276;2023-06-14T03:07:04;95907.34;;;15.06;64.21
57232;BME280;43488;46.934;8.276;2023-06-14T03:09:36;95892.50;;;15.05;64.23
57232;BME280;43488;46.934;8.276;2023-06-14T03:12:08;95902.56;;;15.03;64.70
57232;BME280;43488;46.934;8.276;2023-06-14T03:14:38;95905.81;;;15.10;64.32
57232;BME280;43488;46.934;8.276;2023-06-14T03:17:06;95912.56;;;15.23;64.44
57232;BME280;43488;46.934;8.276;2023-06-14T03:19:35;95905.41;;;14.96;64.19
57232;BME280;43488;46.934;8.276;2023-06-14T03:22:02;95915.59;;;14.83;65.12
57232;BME280;43488;46.934;8.276;2023-06-14T03:24:31;95915.28;;;14.79;65.43
57232;BME280;43488;46.934;8.276;2023-06-14T03:27:04;95911.53;;;14.75;65.62
57232;BME280;43488;46.934;8.276;2023-06-14T03:29:31;95910.78;;;14.79;65.57
57232;BME280;43488;46.934;8.276;2023-06-14T03:32:02;95916.50;;;14.93;65.38
57232;BME280;43488;46.934;8.276;2023-06-14T03:34:30;95920.56;;;15.01;64.27
57232;BME280;43488;46.934;8.276;2023-06-14T03:36:57;95922.91;;;14.97;64.37
57232;BME280;43488;46.934;8.276;2023-06-14T03:39:25;95922.72;;;15.04;64.01
57232;BME280;43488;46.934;8.276;2023-06-14T03:41:53;95917.97;;;15.06;64.40
57232;BME280;43488;46.934;8.276;2023-06-14T03:44:21;95917.22;;;15.11;64.07
57232;BME280;43488;46.934;8.276;2023-06-14T03:46:48;95924.38;;;15.10;65.03
57232;BME280;43488;46.934;8.276;2023-06-14T03:49:15;95926.59;;;15.18;65.59
57232;BME280;43488;46.934;8.276;2023-06-14T03:51:44;95924.75;;;15.24;64.94
57232;BME280;43488;46.934;8.276;2023-06-14T03:54:11;95922.13;;;15.24;64.72
57232;BME280;43488;46.934;8.276;2023-06-14T03:56:39;95940.16;;;15.27;63.37
57232;BME280;43488;46.934;8.276;2023-06-14T03:59:06;95932.28;;;15.32;63.63
57232;BME280;43488;46.934;8.276;2023-06-14T04:01:33;95927.50;;;15.34;63.21
57232;BME280;43488;46.934;8.276;2023-06-14T04:04:01;95933.69;;;15.40;63.22
57232;BME280;43488;46.934;8.276;2023-06-14T04:06:29;95940.84;;;15.39;62.91
57232;BME280;43488;46.934;8.276;2023-06-14T04:09:00;95937.94;;;15.41;62.68
57232;BME280;43488;46.934;8.276;2023-06-14T04:11:30;95939.53;;;15.42;63.02
57232;BME280;43488;46.934;8.276;2023-06-14T04:14:01;95942.38;;;15.35;62.66
57232;BME280;43488;46.934;8.276;2023-06-14T04:16:28;95942.44;;;15.40;63.69
57232;BME280;43488;46.934;8.276;2023-06-14T04:18:56;95950.41;;;15.45;64.46
57232;BME280;43488;46.934;8.276;2023-06-14T04:21:25;95955.69;;;15.40;63.84
57232;BME280;43488;46.934;8.276;2023-06-14T04:23:56;95949.84;;;15.38;64.05
57232;BME280;43488;46.934;8.276;2023-06-14T04:26:23;95963.38;;;15.36;63.72
57232;BME280;43488;46.934;8.276;2023-06-14T04:28:53;95959.56;;;15.27;64.60
57232;BME280;43488;46.934;8.276;2023-06-14T04:31:24;95963.81;;;15.28;65.42
57232;BME280;43488;46.934;8.276;2023-06-14T04:33:52;95966.34;;;15.18;66.17
57232;BME280;43488;46.934;8.276;2023-06-14T04:36:20;95967.69;;;15.21;65.31
57232;BME280;43488;46.934;8.276;2023-06-14T04:38:48;95972.38;;;15.14;64.99
57232;BME280;43488;46.934;8.276;2023-06-14T04:41:16;95973.84;;;15.26;65.05
57232;BME280;43488;46.934;8.276;2023-06-14T04:43:45;95975.50;;;15.32;65.44
57232;BME280;43488;46.934;8.276;2023-06-14T04:46:15;95980.06;;;15.37;64.31
57232;BME280;43488;46.934;8.276;2023-06-14T04:48:44;95985.41;;;15.42;64.19
57232;BME280;43488;46.934;8.276;2023-06-14T04:51:12;95979.91;;;15.49;63.93
57232;BME280;43488;46.934;8.276;2023-06-14T04:53:40;95987.00;;;15.65;64.16
57232;BME280;43488;46.934;8.276;2023-06-14T04:56:07;95991.06;;;15.73;62.35
57232;BME280;43488;46.934;8.276;2023-06-14T04:58:34;95993.47;;;15.79;62.04
57232;BME280;43488;46.934;8.276;2023-06-14T05:01:01;95990.88;;;15.84;62.14
57232;BME280;43488;46.934;8.276;2023-06-14T05:03:29;95993.63;;;15.95;61.29
57232;BME280;43488;46.934;8.276;2023-06-14T05:05:57;95992.63;;;16.06;61.09
57232;BME280;43488;46.934;8.276;2023-06-14T05:08:24;95993.66;;;16.00;62.71
57232;BME280;43488;46.934;8.276;2023-06-14T05:10:53;95993.97;;;16.08;62.50
57232;BME280;43488;46.934;8.276;2023-06-14T05:13:21;95998.88;;;16.21;61.11
57232;BME280;43488;46.934;8.276;2023-06-14T05:15:52;95997.66;;;16.39;60.16
57232;BME280;43488;46.934;8.276;2023-06-14T05:18:20;95995.03;;;16.44;59.54
57232;BME280;43488;46.934;8.276;2023-06-14T05:20:47;95998.53;;;16.50;58.88
57232;BME280;43488;46.934;8.276;2023-06-14T05:23:17;95991.41;;;16.61;59.64
57232;BME280;43488;46.934;8.276;2023-06-14T05:25:45;95996.53;;;16.72;58.95
57232;BME280;43488;46.934;8.276;2023-06-14T05:28:13;95992.63;;;16.85;57.36
57232;BME280;43488;46.934;8.276;2023-06-14T05:30:40;95992.16;;;16.93;57.29
57232;BME280;43488;46.934;8.276;2023-06-14T05:33:08;95995.38;;;17.05;57.57
57232;BME280;43488;46.934;8.276;2023-06-14T05:35:36;95990.63;;;17.18;57.07
57232;BME280;43488;46.934;8.276;2023-06-14T05:38:04;95986.13;;;17.23;57.02
57232;BME280;43488;46.934;8.276;2023-06-14T05:40:32;95992.81;;;17.31;57.37
57232;BME280;43488;46.934;8.276;2023-06-14T05:43:00;96001.34;;;17.43;56.80
57232;BME280;43488;46.934;8.276;2023-06-14T05:45:27;95991.25;;;17.50;55.19
57232;BME280;43488;46.934;8.276;2023-06-14T05:47:54;95997.38;;;17.61;58.36
57232;BME280;43488;46.934;8.276;2023-06-14T05:50:22;96003.56;;;17.72;62.02
57232;BME280;43488;46.934;8.276;2023-06-14T05:52:49;96008.88;;;17.82;61.54
57232;BME280;43488;46.934;8.276;2023-06-14T05:55:17;96005.16;;;17.83;61.10
57232;BME280;43488;46.934;8.276;2023-06-14T05:57:45;96008.38;;;17.90;63.15
57232;BME280;43488;46.934;8.276;2023-06-14T06:00:13;96013.16;;;17.88;60.54
57232;BME280;43488;46.934;8.276;2023-06-14T06:02:44;96005.16;;;17.88;60.08
57232;BME280;43488;46.934;8.276;2023-06-14T06:05:12;96013.16;;;17.88;59.89
57232;BME280;43488;46.934;8.276;2023-06-14T06:07:41;96012.38;;;17.87;59.50
57232;BME280;43488;46.934;8.276;2023-06-14T06:10:09;96016.63;;;17.88;59.99
57232;BME280;43488;46.934;8.276;2023-06-14T06:12:37;96010.75;;;17.86;60.59
57232;BME280;43488;46.934;8.276;2023-06-14T06:15:07;96011.84;;;17.96;60.72
57232;BME280;43488;46.934;8.276;2023-06-14T06:17:34;96017.44;;;18.04;59.89
57232;BME280;43488;46.934;8.276;2023-06-14T06:20:05;96018.50;;;18.18;57.84
57232;BME280;43488;46.934;8.276;2023-06-14T06:22:35;96019.00;;;18.36;58.52
57232;BME280;43488;46.934;8.276;2023-06-14T06:25:02;96022.47;;;18.52;56.62
57232;BME280;43488;46.934;8.276;2023-06-14T06:27:32;96020.34;;;18.69;55.28
57232;BME280;43488;46.934;8.276;2023-06-14T06:29:59;96024.84;;;18.84;54.88
57232;BME280;43488;46.934;8.276;2023-06-14T06:32:27;96018.13;;;18.96;54.28
57232;BME280;43488;46.934;8.276;2023-06-14T06:34:54;96019.16;;;19.06;54.07
57232;BME280;43488;46.934;8.276;2023-06-14T06:37:21;96022.06;;;19.09;53.35
57232;BME280;43488;46.934;8.276;2023-06-14T06:39:48;96024.22;;;19.12;52.88
57232;BME280;43488;46.934;8.276;2023-06-14T06:42:16;96020.25;;;18.99;52.42
57232;BME280;43488;46.934;8.276;2023-06-14T06:44:43;96024.53;;;18.95;53.59
57232;BME280;43488;46.934;8.276;2023-06-14T06:47:11;96027.97;;;19.11;53.38
57232;BME280;43488;46.934;8.276;2023-06-14T06:49:39;96027.16;;;19.06;53.69
57232;BME280;43488;46.934;8.276;2023-06-14T06:52:07;96023.19;;;19.03;52.35
57232;BME280;43488;46.934;8.276;2023-06-14T06:54:34;96030.63;;;19.06;52.01
57232;BME280;43488;46.934;8.276;2023-06-14T06:57:03;96038.81;;;19.25;52.33
57232;BME280;43488;46.934;8.276;2023-06-14T06:59:31;96045.66;;;19.46;51.23
57232;BME280;43488;46.934;8.276;2023-06-14T07:01:58;96037.34;;;19.63;51.64
57232;BME280;43488;46.934;8.276;2023-06-14T07:04:26;96041.03;;;19.72;50.92
57232;BME280;43488;46.934;8.276;2023-06-14T07:06:54;96048.72;;;19.79;50.07
57232;BME280;43488;46.934;8.276;2023-06-14T07:09:21;96045.19;;;19.94;50.92
57232;BME280;43488;46.934;8.276;2023-06-14T07:11:50;96050.47;;;19.99;50.23
57232;BME280;43488;46.934;8.276;2023-06-14T07:14:17;96045.69;;;19.96;48.65
57232;BME280;43488;46.934;8.276;2023-06-14T07:16:45;96052.97;;;19.85;48.78
57232;BME280;43488;46.934;8.276;2023-06-14T07:19:13;96047.31;;;19.92;49.00
57232;BME280;43488;46.934;8.276;2023-06-14T07:21:41;96049.75;;;19.88;48.94
57232;BME280;43488;46.934;8.276;2023-06-14T07:24:08;96056.28;;;19.67;47.47
57232;BME280;43488;46.934;8.276;2023-06-14T07:26:36;96042.63;;;19.73;47.46
57232;BME280;43488;46.934;8.276;2023-06-14T07:29:03;96054.59;;;19.81;47.42
57232;BME280;43488;46.934;8.276;2023-06-14T07:31:31;96044.09;;;19.95;47.38
57232;BME280;43488;46.934;8.276;2023-06-14T07:33:59;96051.25;;;20.04;47.06
57232;BME280;43488;46.934;8.276;2023-06-14T07:36:26;96054.38;;;20.11;45.91
57232;BME280;43488;46.934;8.276;2023-06-14T07:38:53;96055.13;;;20.22;46.08
57232;BME280;43488;46.934;8.276;2023-06-14T07:41:21;96054.31;;;20.22;46.81
57232;BME280;43488;46.934;8.276;2023-06-14T07:43:56;96055.38;;;20.21;46.10
57232;BME280;43488;46.934;8.276;2023-06-14T07:46:23;96052.97;;;20.24;42.33
57232;BME280;43488;46.934;8.276;2023-06-14T07:48:50;96048.09;;;20.31;42.62
57232;BME280;43488;46.934;8.276;2023-06-14T07:51:18;96051.84;;;20.30;42.13
57232;BME280;43488;46.934;8.276;2023-06-14T07:53:46;96049.13;;;20.35;42.96
57232;BME280;43488;46.934;8.276;2023-06-14T07:56:14;96049.13;;;20.35;41.97
57232;BME280;43488;46.934;8.276;2023-06-14T07:58:41;96049.59;;;20.08;42.30
57232;BME280;43488;46.934;8.276;2023-06-14T08:01:10;96053.00;;;20.19;42.34
57232;BME280;43488;46.934;8.276;2023-06-14T08:03:38;96051.59;;;20.27;42.43
57232;BME280;43488;46.934;8.276;2023-06-14T08:06:07;96052.56;;;20.41;42.48
57232;BME280;43488;46.934;8.276;2023-06-14T08:08:34;96046.03;;;20.23;42.39
57232;BME280;43488;46.934;8.276;2023-06-14T08:11:02;96051.84;;;20.30;42.62
57232;BME280;43488;46.934;8.276;2023-06-14T08:13:29;96050.78;;;20.31;42.46
57232;BME280;43488;46.934;8.276;2023-06-14T08:15:57;96044.50;;;20.46;42.50
57232;BME280;43488;46.934;8.276;2023-06-14T08:18:25;96043.34;;;20.57;40.81
57232;BME280;43488;46.934;8.276;2023-06-14T08:20:55;96038.88;;;20.48;40.38
57232;BME280;43488;46.934;8.276;2023-06-14T08:23:25;96040.44;;;20.54;40.42
57232;BME280;43488;46.934;8.276;2023-06-14T08:25:52;96040.06;;;20.65;41.40
57232;BME280;43488;46.934;8.276;2023-06-14T08:28:20;96042.97;;;20.69;41.42
57232;BME280;43488;46.934;8.276;2023-06-14T08:30:47;96034.34;;;20.77;40.19
57232;BME280;43488;46.934;8.276;2023-06-14T08:33:15;96048.13;;;20.89;40.39
57232;BME280;43488;46.934;8.276;2023-06-14T08:35:42;96046.03;;;20.86;38.67
57232;BME280;43488;46.934;8.276;2023-06-14T08:38:11;96048.63;;;20.91;39.49
57232;BME280;43488;46.934;8.276;2023-06-14T08:40:41;96047.66;;;21.06;40.52
57232;BME280;43488;46.934;8.276;2023-06-14T08:43:09;96037.88;;;20.96;39.63
57232;BME280;43488;46.934;8.276;2023-06-14T08:45:37;96043.34;;;21.10;40.59
57232;BME280;43488;46.934;8.276;2023-06-14T08:48:07;96040.38;;;21.12;40.26
57232;BME280;43488;46.934;8.276;2023-06-14T08:50:36;96039.22;;;21.18;42.11
57232;BME280;43488;46.934;8.276;2023-06-14T08:53:08;96046.69;;;21.21;40.18
57232;BME280;43488;46.934;8.276;2023-06-14T08:55:38;96043.63;;;21.09;39.84
57232;BME280;43488;46.934;8.276;2023-06-14T08:58:07;96039.44;;;21.26;40.58
57232;BME280;43488;46.934;8.276;2023-06-14T09:00:36;96039.53;;;21.40;40.64
57232;BME280;43488;46.934;8.276;2023-06-14T09:03:06;96043.19;;;21.49;40.06
57232;BME280;43488;46.934;8.276;2023-06-14T09:05:40;96042.06;;;21.32;39.02
57232;BME280;43488;46.934;8.276;2023-06-14T09:08:08;96037.94;;;21.39;41.34
57232;BME280;43488;46.934;8.276;2023-06-14T09:10:40;96043.22;;;21.44;39.84
57232;BME280;43488;46.934;8.276;2023-06-14T09:13:09;96043.09;;;21.54;39.91
57232;BME280;43488;46.934;8.276;2023-06-14T09:15:36;96041.22;;;21.55;39.91
57232;BME280;43488;46.934;8.276;2023-06-14T09:18:04;96045.63;;;21.65;39.05
57232;BME280;43488;46.934;8.276;2023-06-14T09:20:33;96035.88;;;21.74;39.71
57232;BME280;43488;46.934;8.276;2023-06-14T09:23:03;96035.00;;;21.78;37.70
57232;BME280;43488;46.934;8.276;2023-06-14T09:25:33;96035.88;;;21.93;38.59
57232;BME280;43488;46.934;8.276;2023-06-14T09:28:09;96043.53;;;21.99;38.87
57232;BME280;43488;46.934;8.276;2023-06-14T09:30:38;96046.97;;;22.05;36.94
57232;BME280;43488;46.934;8.276;2023-06-14T09:33:06;96044.66;;;22.17;39.29
57232;BME280;43488;46.934;8.276;2023-06-14T09:35:35;96042.81;;;22.12;37.66
57232;BME280;43488;46.934;8.276;2023-06-14T09:38:02;96039.47;;;22.21;38.11
57232;BME280;43488;46.934;8.276;2023-06-14T09:40:34;96039.09;;;22.13;36.14
57232;BME280;43488;46.934;8.276;2023-06-14T09:43:06;96037.34;;;22.23;37.99
57232;BME280;43488;46.934;8.276;2023-06-14T09:45:38;96040.00;;;22.23;37.48
57232;BME280;43488;46.934;8.276;2023-06-14T09:48:07;96043.63;;;22.32;38.21
57232;BME280;43488;46.934;8.276;2023-06-14T09:50:35;96042.72;;;22.36;36.83
57232;BME280;43488;46.934;8.276;2023-06-14T09:53:06;96040.53;;;22.38;36.67
57232;BME280;43488;46.934;8.276;2023-06-14T09:55:36;96041.59;;;22.56;38.56
57232;BME280;43488;46.934;8.276;2023-06-14T09:58:06;96046.38;;;22.59;36.86
57232;BME280;43488;46.934;8.276;2023-06-14T10:00:35;96041.59;;;22.56;37.04
57232;BME280;43488;46.934;8.276;2023-06-14T10:03:28;96038.44;;;22.68;38.21
57232;BME280;43488;46.934;8.276;2023-06-14T10:05:58;96034.00;;;22.77;37.93
57232;BME280;43488;46.934;8.276;2023-06-14T10:08:31;96038.91;;;22.89;37.31
57232;BME280;43488;46.934;8.276;2023-06-14T10:11:00;96036.44;;;22.74;36.54
57232;BME280;43488;46.934;8.276;2023-06-14T10:13:32;96034.94;;;22.86;36.86
57232;BME280;43488;46.934;8.276;2023-06-14T10:16:11;96020.91;;;23.03;37.53
57232;BME280;43488;46.934;8.276;2023-06-14T10:19:24;96031.34;;;22.91;36.87
57232;BME280;43488;46.934;8.276;2023-06-14T10:22:06;96027.78;;;23.09;36.81
57232;BME280;43488;46.934;8.276;2023-06-14T10:24:41;96012.25;;;23.20;36.77
57232;BME280;43488;46.934;8.276;2023-06-14T10:27:09;96024.19;;;23.27;35.72
57232;BME280;43488;46.934;8.276;2023-06-14T10:32:20;96015.38;;;23.49;35.72
57232;BME280;43488;46.934;8.276;2023-06-14T10:34:59;96016.41;;;23.53;34.94
57232;BME280;43488;46.934;8.276;2023-06-14T10:37:27;96011.13;;;23.62;35.38
57232;BME280;43488;46.934;8.276;2023-06-14T10:39:55;96007.41;;;23.58;35.44
57232;BME280;43488;46.934;8.276;2023-06-14T10:42:32;96009.22;;;23.49;34.92
57232;BME280;43488;46.934;8.276;2023-06-14T10:45:01;96010.09;;;23.58;35.09
57232;BME280;43488;46.934;8.276;2023-06-14T10:47:34;96005.06;;;23.70;35.37
57232;BME280;43488;46.934;8.276;2023-06-14T10:50:11;96002.75;;;23.77;35.00
57232;BME280;43488;46.934;8.276;2023-06-14T10:52:42;96001.50;;;23.83;34.72
57232;BME280;43488;46.934;8.276;2023-06-14T10:55:15;95995.78;;;23.99;35.67
57232;BME280;43488;46.934;8.276;2023-06-14T10:57:53;95994.94;;;23.90;34.06
57232;BME280;43488;46.934;8.276;2023-06-14T11:00:28;96002.03;;;24.08;34.72
57232;BME280;43488;46.934;8.276;2023-06-14T11:03:31;95997.44;;;24.08;34.67
57232;BME280;43488;46.934;8.276;2023-06-14T11:06:14;95999.47;;;24.25;35.38
57232;BME280;43488;46.934;8.276;2023-06-14T11:12:03;95986.59;;;24.36;34.07
57232;BME280;43488;46.934;8.276;2023-06-14T11:14:31;95992.81;;;24.45;34.32
57232;BME280;43488;46.934;8.276;2023-06-14T11:16:59;96002.63;;;24.50;34.23
57232;BME280;43488;46.934;8.276;2023-06-14T11:19:27;95998.03;;;24.50;33.48
57232;BME280;43488;46.934;8.276;2023-06-14T11:21:56;95996.50;;;24.58;34.21
57232;BME280;43488;46.934;8.276;2023-06-14T11:24:23;96000.50;;;24.60;33.66
57232;BME280;43488;46.934;8.276;2023-06-14T11:26:51;95991.97;;;24.67;33.13
57232;BME280;43488;46.934;8.276;2023-06-14T11:29:22;95997.56;;;24.79;33.62
57232;BME280;43488;46.934;8.276;2023-06-14T11:31:50;95990.78;;;24.82;32.84
57232;BME280;43488;46.934;8.276;2023-06-14T11:34:17;95996.22;;;24.99;33.96
57232;BME280;43488;46.934;8.276;2023-06-14T11:36:45;95990.66;;;24.95;32.43
57232;BME280;43488;46.934;8.276;2023-06-14T11:39:14;95983.13;;;25.06;32.93
57232;BME280;43488;46.934;8.276;2023-06-14T11:41:45;95982.34;;;25.14;31.92
57232;BME280;43488;46.934;8.276;2023-06-14T11:44:13;95981.41;;;25.19;32.01
57232;BME280;43488;46.934;8.276;2023-06-14T11:46:40;95984.91;;;25.19;31.79
57232;BME280;43488;46.934;8.276;2023-06-14T11:49:08;95973.81;;;25.21;31.32
57232;BME280;43488;46.934;8.276;2023-06-14T11:51:36;95976.84;;;25.28;32.04
57232;BME280;43488;46.934;8.276;2023-06-14T11:54:06;95963.53;;;25.40;31.66
57232;BME280;43488;46.934;8.276;2023-06-14T11:56:33;95971.97;;;25.47;31.45
57232;BME280;43488;46.934;8.276;2023-06-14T11:59:03;95971.66;;;25.58;31.20
57232;BME280;43488;46.934;8.276;2023-06-14T12:01:36;95976.56;;;25.56;30.95
57232;BME280;43488;46.934;8.276;2023-06-14T12:04:05;95969.16;;;25.70;31.55
57232;BME280;43488;46.934;8.276;2023-06-14T12:06:33;95965.97;;;25.76;31.36
57232;BME280;43488;46.934;8.276;2023-06-14T12:09:07;95960.13;;;25.74;30.62
57232;BME280;43488;46.934;8.276;2023-06-14T12:11:39;95967.84;;;25.67;30.58
57232;BME280;43488;46.934;8.276;2023-06-14T12:14:08;95956.16;;;25.80;30.78
57232;BME280;43488;46.934;8.276;2023-06-14T12:16:39;95961.06;;;25.87;30.65
57232;BME280;43488;46.934;8.276;2023-06-14T12:19:16;95961.56;;;25.89;30.51
57232;BME280;43488;46.934;8.276;2023-06-14T12:21:48;95963.47;;;25.89;29.47
57232;BME280;43488;46.934;8.276;2023-06-14T12:24:19;95958.34;;;25.96;30.11
57232;BME280;43488;46.934;8.276;2023-06-14T12:26:46;95958.69;;;26.03;30.06
57232;BME280;43488;46.934;8.276;2023-06-14T12:29:14;95965.97;;;26.11;30.46
57232;BME280;43488;46.934;8.276;2023-06-14T12:31:41;95950.91;;;26.10;29.61
57232;BME280;43488;46.934;8.276;2023-06-14T12:34:08;95962.31;;;26.16;30.53
57232;BME280;43488;46.934;8.276;2023-06-14T12:36:36;95952.34;;;26.07;29.82
57232;BME280;43488;46.934;8.276;2023-06-14T12:39:08;95953.94;;;26.00;29.94
57232;BME280;43488;46.934;8.276;2023-06-14T12:41:36;95951.69;;;26.11;29.77
57232;BME280;43488;46.934;8.276;2023-06-14T12:44:04;95958.66;;;26.20;30.31
57232;BME280;43488;46.934;8.276;2023-06-14T12:46:31;95948.50;;;26.26;30.13
57232;BME280;43488;46.934;8.276;2023-06-14T12:48:59;95957.06;;;26.28;29.52
57232;BME280;43488;46.934;8.276;2023-06-14T12:51:26;95955.63;;;26.30;29.07
57232;BME280;43488;46.934;8.276;2023-06-14T12:53:55;95958.78;;;26.41;29.09
57232;BME280;43488;46.934;8.276;2023-06-14T12:56:22;95960.53;;;26.46;29.74
57232;BME280;43488;46.934;8.276;2023-06-14T12:58:50;95957.66;;;26.51;28.96
57232;BME280;43488;46.934;8.276;2023-06-14T13:01:17;95956.22;;;26.53;28.28
57232;BME280;43488;46.934;8.276;2023-06-14T13:03:47;95958.13;;;26.53;28.36
57232;BME280;43488;46.934;8.276;2023-06-14T13:06:14;95952.84;;;26.65;28.83
57232;BME280;43488;46.934;8.276;2023-06-14T13:08:41;95955.09;;;26.63;27.91
57232;BME280;43488;46.934;8.276;2023-06-14T13:11:09;95953.63;;;26.65;27.56
57232;BME280;43488;46.934;8.276;2023-06-14T13:13:36;95955.50;;;26.74;28.02
57232;BME280;43488;46.934;8.276;2023-06-14T13:16:04;95954.69;;;26.82;28.34
57232;BME280;43488;46.934;8.276;2023-06-14T13:18:35;95952.34;;;26.72;27.05
57232;BME280;43488;46.934;8.276;2023-06-14T13:21:02;95955.66;;;26.77;27.53